createdAt,value
2018-11-25T00:00:26.975Z,6.37
2018-11-25T00:02:56.533Z,6.24
2018-11-25T00:05:25.941Z,6.25
2018-11-25T00:07:55.252Z,6.22
2018-11-25T00:10:24.936Z,6.25
2018-11-25T00:12:54.443Z,6.16
2018-11-25T00:15:23.839Z,6.30
2018-11-25T00:17:53.116Z,6.44
2018-11-25T00:20:22.537Z,6.60
2018-11-25T00:22:51.992Z,6.68
2018-11-25T00:25:21.527Z,6.59
2018-11-25T00:27:51.255Z,6.67
2018-11-25T00:30:20.752Z,6.74
2018-11-25T00:32:50.024Z,6.61
2018-11-25T00:35:19.728Z,6.67
2018-11-25T00:37:49.662Z,6.90
2018-11-25T00:40:19.234Z,6.95
2018-11-25T00:42:48.687Z,6.86
2018-11-25T00:45:20.444Z,6.95
2018-11-25T00:47:50.487Z,6.66
2018-11-25T00:50:20.073Z,6.79
2018-11-25T00:52:50.347Z,6.84
2018-11-25T00:55:19.614Z,6.78
2018-11-25T00:57:48.916Z,6.88
2018-11-25T01:00:19.962Z,6.77
2018-11-25T01:02:50.766Z,6.59
2018-11-25T01:05:20.172Z,6.72
2018-11-25T01:07:49.584Z,6.63
2018-11-25T01:10:18.868Z,6.71
2018-11-25T01:12:48.144Z,6.80
2018-11-25T01:15:18.526Z,6.82
2018-11-25T01:17:47.968Z,6.97
2018-11-25T01:20:21.550Z,6.76
2018-11-25T01:22:50.837Z,6.45
2018-11-25T01:25:20.094Z,6.54
2018-11-25T01:27:49.616Z,6.52
2018-11-25T01:30:33.577Z,6.56
2018-11-25T01:33:03.123Z,6.68
2018-11-25T01:35:32.464Z,6.77
2018-11-25T01:38:01.735Z,6.76
2018-11-25T01:40:31.066Z,6.59
2018-11-25T01:43:00.332Z,6.60
2018-11-25T01:45:29.613Z,6.75
2018-11-25T01:47:58.905Z,6.86
2018-11-25T01:50:28.191Z,6.67
2018-11-25T01:52:57.496Z,6.88
2018-11-25T01:55:27.271Z,6.75
2018-11-25T01:57:56.542Z,6.71
2018-11-25T02:00:25.809Z,6.63
2018-11-25T02:02:55.086Z,6.43
2018-11-25T02:05:24.343Z,6.44
2018-11-25T02:07:53.829Z,6.68
2018-11-25T02:10:23.097Z,6.77
2018-11-25T02:12:52.628Z,6.84
2018-11-25T02:15:22.134Z,6.80
2018-11-25T02:17:51.607Z,6.90
2018-11-25T02:20:24.155Z,6.78
2018-11-25T02:22:56.214Z,6.79
2018-11-25T02:25:25.659Z,6.82
2018-11-25T02:27:54.923Z,6.93
2018-11-25T02:30:24.512Z,6.91
2018-11-25T02:32:53.794Z,6.97
2018-11-25T02:35:23.061Z,6.79
2018-11-25T02:37:52.779Z,6.48
2018-11-25T02:40:22.327Z,6.33
2018-11-25T02:42:51.808Z,6.43
2018-11-25T02:45:21.119Z,6.52
2018-11-25T02:47:50.669Z,6.60
2018-11-25T02:50:27.562Z,6.54
2018-11-25T02:52:59.734Z,6.40
2018-11-25T02:55:29.542Z,6.48
2018-11-25T02:57:58.825Z,6.53
2018-11-25T03:00:28.103Z,6.44
2018-11-25T03:02:57.371Z,6.48
2018-11-25T03:05:26.810Z,6.44
2018-11-25T03:07:56.069Z,6.48
2018-11-25T03:10:25.365Z,6.64
2018-11-25T03:12:55.080Z,6.69
2018-11-25T03:15:24.619Z,6.39
2018-11-25T03:17:54.126Z,6.44
2018-11-25T03:20:23.620Z,6.46
2018-11-25T03:22:53.131Z,6.57
2018-11-25T03:25:22.678Z,6.55
2018-11-25T03:27:51.926Z,6.52
2018-11-25T03:30:22.524Z,6.73
2018-11-25T03:32:53.311Z,6.83
2018-11-25T03:35:22.829Z,7.02
2018-11-25T03:37:52.079Z,6.86
2018-11-25T03:40:22.159Z,6.74
2018-11-25T03:42:52.026Z,6.95
2018-11-25T03:45:22.300Z,6.86
2018-11-25T03:47:51.614Z,6.73
2018-11-25T03:50:20.910Z,6.61
2018-11-25T03:52:50.141Z,6.57
2018-11-25T03:55:19.629Z,6.51
2018-11-25T03:57:48.899Z,6.47
2018-11-25T04:00:22.025Z,6.65
2018-11-25T04:02:53.059Z,6.63
2018-11-25T04:05:22.322Z,6.77
2018-11-25T04:07:51.675Z,6.71
2018-11-25T04:10:20.982Z,6.74
2018-11-25T04:12:50.340Z,6.73
2018-11-25T04:15:20.326Z,6.81
2018-11-25T04:17:49.941Z,6.70
2018-11-25T04:20:20.530Z,6.73
2018-11-25T04:22:50.606Z,6.74
2018-11-25T04:25:19.885Z,6.91
2018-11-25T04:27:49.175Z,7.00
2018-11-25T04:30:19.769Z,6.93
2018-11-25T04:32:50.418Z,6.78
2018-11-25T04:35:19.736Z,6.65
2018-11-25T04:37:49.014Z,6.88
2018-11-25T04:40:19.011Z,6.82
2018-11-25T04:42:48.300Z,6.78
2018-11-25T04:45:18.799Z,6.84
2018-11-25T04:47:48.389Z,6.97
2018-11-25T04:50:21.459Z,7.00
2018-11-25T04:52:50.896Z,6.92
2018-11-25T04:55:20.173Z,6.99
2018-11-25T04:57:52.374Z,7.13
2018-11-25T05:00:21.706Z,6.97
2018-11-25T05:02:51.858Z,7.08
2018-11-25T05:05:21.492Z,7.15
2018-11-25T05:07:51.107Z,7.06
2018-11-25T05:10:20.336Z,7.12
2018-11-25T05:12:49.655Z,7.10
2018-11-25T05:15:20.730Z,7.19
2018-11-25T05:17:50.251Z,7.15
2018-11-25T05:20:20.773Z,7.02
2018-11-25T05:22:50.018Z,6.95
2018-11-25T05:25:20.783Z,6.87
2018-11-25T05:27:50.047Z,7.00
2018-11-25T05:30:22.152Z,6.93
2018-11-25T05:32:51.406Z,6.87
2018-11-25T05:35:21.656Z,6.85
2018-11-25T05:37:51.127Z,6.78
2018-11-25T05:40:20.445Z,6.85
2018-11-25T05:42:49.704Z,6.94
2018-11-25T05:45:21.068Z,7.15
2018-11-25T05:47:50.370Z,7.04
2018-11-25T05:50:20.073Z,7.01
2018-11-25T05:52:49.360Z,7.16
2018-11-25T05:55:18.812Z,7.19
2018-11-25T05:57:48.060Z,7.15
2018-11-25T06:00:24.119Z,7.13
2018-11-25T06:02:53.384Z,7.26
2018-11-25T06:05:22.624Z,6.94
2018-11-25T06:07:51.898Z,7.01
2018-11-25T06:10:21.161Z,7.05
2018-11-25T06:12:50.461Z,7.10
2018-11-25T06:15:19.794Z,7.04
2018-11-25T06:17:49.051Z,7.08
2018-11-25T06:20:18.708Z,6.87
2018-11-25T06:22:48.911Z,7.06
2018-11-25T06:25:20.958Z,7.12
2018-11-25T06:27:50.232Z,7.19
2018-11-25T06:30:21.175Z,7.26
2018-11-25T06:32:50.442Z,7.15
2018-11-25T06:35:20.665Z,7.11
2018-11-25T06:37:49.891Z,7.07
2018-11-25T06:40:20.929Z,7.16
2018-11-25T06:42:50.691Z,7.21
2018-11-25T06:45:27.920Z,7.24
2018-11-25T06:47:58.581Z,7.39
2018-11-25T06:50:27.858Z,7.37
2018-11-25T06:52:57.161Z,7.32
2018-11-25T06:55:26.441Z,7.24
2018-11-25T06:57:55.754Z,7.30
2018-11-25T07:00:26.065Z,7.23
2018-11-25T07:02:55.918Z,7.26
2018-11-25T07:05:25.446Z,7.36
2018-11-25T07:07:54.747Z,7.26
2018-11-25T07:10:24.193Z,7.30
2018-11-25T07:12:55.583Z,7.45
2018-11-25T07:15:24.897Z,7.40
2018-11-25T07:17:54.147Z,7.37
2018-11-25T07:20:23.528Z,7.40
2018-11-25T07:22:54.191Z,7.41
2018-11-25T07:25:23.550Z,7.48
2018-11-25T07:27:52.883Z,7.42
2018-11-25T07:30:25.844Z,7.31
2018-11-25T07:32:55.161Z,7.16
2018-11-25T07:35:26.696Z,7.24
2018-11-25T07:37:56.034Z,7.43
2018-11-25T07:40:26.571Z,7.41
2018-11-25T07:42:56.184Z,7.31
2018-11-25T07:45:30.428Z,7.35
2018-11-25T07:47:55.742Z,7.31
2018-11-25T07:50:25.127Z,7.32
2018-11-25T07:52:54.467Z,7.33
2018-11-25T07:55:25.428Z,7.26
2018-11-25T07:57:56.392Z,7.44
2018-11-25T08:00:27.104Z,7.66
2018-11-25T08:02:56.403Z,7.77
2018-11-25T08:05:27.125Z,7.75
2018-11-25T08:07:56.485Z,7.87
2018-11-25T08:10:25.763Z,7.64
2018-11-25T08:12:56.417Z,7.70
2018-11-25T08:15:24.430Z,7.64
2018-11-25T08:17:53.706Z,7.71
2018-11-25T08:20:23.579Z,7.67
2018-11-25T08:22:53.400Z,7.57
2018-11-25T08:25:23.195Z,7.53
2018-11-25T08:27:52.476Z,7.68
2018-11-25T08:30:25.462Z,7.60
2018-11-25T08:32:54.849Z,7.56
2018-11-25T08:35:24.349Z,7.68
2018-11-25T08:37:54.058Z,7.44
2018-11-25T08:40:25.480Z,7.61
2018-11-25T08:42:54.916Z,7.71
2018-11-25T08:45:24.223Z,7.57
2018-11-25T08:47:53.559Z,7.67
2018-11-25T08:50:22.876Z,7.55
2018-11-25T08:52:53.346Z,7.65
2018-11-25T08:55:25.184Z,7.51
2018-11-25T08:57:55.112Z,7.56
2018-11-25T09:00:27.264Z,7.75
2018-11-25T09:02:57.382Z,7.78
2018-11-25T09:05:28.378Z,7.44
2018-11-25T09:07:57.688Z,7.58
2018-11-25T09:10:28.011Z,7.76
2018-11-25T09:12:59.315Z,7.70
2018-11-25T09:15:31.076Z,7.77
2018-11-25T09:18:00.543Z,7.68
2018-11-25T09:20:29.787Z,7.57
2018-11-25T09:22:59.043Z,7.59
2018-11-25T09:25:32.983Z,7.53
2018-11-25T09:28:03.890Z,7.54
2018-11-25T09:30:34.669Z,7.32
2018-11-25T09:33:04.056Z,7.69
2018-11-25T09:35:33.463Z,7.83
2018-11-25T09:38:02.809Z,7.72
2018-11-25T09:40:32.093Z,8.12
2018-11-25T09:43:01.408Z,8.23
2018-11-25T09:45:30.729Z,8.13
2018-11-25T09:47:59.983Z,8.22
2018-11-25T09:50:29.260Z,7.71
2018-11-25T09:52:58.773Z,7.88
2018-11-25T09:55:28.065Z,7.91
2018-11-25T09:58:01.234Z,7.92
2018-11-25T10:00:33.565Z,7.83
2018-11-25T10:03:04.121Z,7.79
2018-11-25T10:05:33.725Z,7.62
2018-11-25T10:08:03.041Z,7.52
2018-11-25T10:10:32.686Z,7.38
2018-11-25T10:13:02.012Z,7.68
2018-11-25T10:15:31.572Z,7.60
2018-11-25T10:18:00.923Z,7.76
2018-11-25T10:20:32.030Z,7.69
2018-11-25T10:23:01.297Z,7.94
2018-11-25T10:25:30.653Z,7.82
2018-11-25T10:27:59.936Z,7.82
2018-11-25T10:30:30.807Z,7.91
2018-11-25T10:33:03.635Z,7.54
2018-11-25T10:35:32.869Z,7.80
2018-11-25T10:38:02.130Z,7.87
2018-11-25T10:40:31.431Z,7.91
2018-11-25T10:43:00.732Z,7.84
2018-11-25T10:45:30.028Z,7.96
2018-11-25T10:47:59.676Z,7.94
2018-11-25T10:50:29.001Z,7.92
2018-11-25T10:52:58.282Z,7.82
2018-11-25T10:55:27.748Z,8.06
2018-11-25T10:57:57.056Z,8.05
2018-11-25T11:00:37.208Z,8.15
2018-11-25T11:03:14.487Z,7.89
2018-11-25T11:05:49.124Z,7.92
2018-11-25T11:08:18.652Z,7.91
2018-11-25T11:10:48.057Z,7.92
2018-11-25T11:13:17.700Z,8.05
2018-11-25T11:15:47.248Z,7.92
2018-11-25T11:18:16.670Z,8.04
2018-11-25T11:20:46.074Z,8.05
2018-11-25T11:23:15.439Z,8.29
2018-11-25T11:25:44.774Z,8.33
2018-11-25T11:28:14.352Z,8.44
2018-11-25T11:30:43.650Z,8.54
2018-11-25T11:33:13.380Z,8.28
2018-11-25T11:35:42.995Z,8.26
2018-11-25T11:38:12.270Z,8.34
2018-11-25T11:40:41.585Z,8.32
2018-11-25T11:43:10.963Z,8.31
2018-11-25T11:45:40.230Z,8.10
2018-11-25T11:48:09.514Z,8.27
2018-11-25T11:50:38.825Z,8.27
2018-11-25T11:53:08.454Z,8.34
2018-11-25T11:55:37.766Z,8.26
2018-11-25T11:58:07.719Z,8.24
2018-11-25T12:00:36.992Z,8.20
2018-11-25T12:03:06.883Z,8.26
2018-11-25T12:05:36.200Z,8.31
2018-11-25T12:08:05.842Z,7.85
2018-11-25T12:10:35.208Z,8.10
2018-11-25T12:13:04.968Z,8.29
2018-11-25T12:15:34.376Z,8.37
2018-11-25T12:18:03.695Z,8.48
2018-11-25T12:20:33.510Z,8.62
2018-11-25T12:23:02.843Z,8.67
2018-11-25T12:25:32.300Z,8.46
2018-11-25T12:28:01.690Z,8.54
2018-11-25T12:30:30.992Z,8.41
2018-11-25T12:33:00.496Z,8.45
2018-11-25T12:35:29.857Z,8.42
2018-11-25T12:37:59.167Z,8.36
2018-11-25T12:40:28.615Z,8.31
2018-11-25T12:42:59.206Z,8.41
2018-11-25T12:45:28.495Z,8.49
2018-11-25T12:47:57.916Z,8.51
2018-11-25T12:50:27.778Z,8.33
2018-11-25T12:52:57.234Z,8.59
2018-11-25T12:55:27.822Z,8.57
2018-11-25T12:57:58.104Z,8.29
2018-11-25T13:00:37.915Z,8.57
2018-11-25T13:03:09.360Z,8.43
2018-11-25T13:05:45.614Z,8.31
2018-11-25T13:08:09.583Z,8.41
2018-11-25T13:10:38.925Z,8.48
2018-11-25T13:13:10.317Z,8.65
2018-11-25T13:15:39.860Z,8.56
2018-11-25T13:18:10.549Z,8.67
2018-11-25T13:20:40.296Z,8.67
2018-11-25T13:23:09.713Z,8.52
2018-11-25T13:25:39.333Z,8.44
2018-11-25T13:28:09.375Z,8.44
2018-11-25T13:30:38.713Z,8.45
2018-11-25T13:33:08.439Z,8.57
2018-11-25T13:35:39.591Z,8.34
2018-11-25T13:38:09.061Z,8.55
2018-11-25T13:40:38.598Z,8.54
2018-11-25T13:43:08.453Z,8.51
2018-11-25T13:45:37.994Z,8.57
2018-11-25T13:48:08.348Z,8.57
2018-11-25T13:50:37.658Z,8.57
2018-11-25T13:53:07.543Z,8.57
2018-11-25T13:55:36.868Z,8.63
2018-11-25T13:58:06.754Z,8.36
2018-11-25T14:00:47.371Z,8.43
2018-11-25T14:03:28.491Z,8.40
2018-11-25T14:05:57.890Z,8.54
2018-11-25T14:08:27.191Z,8.40
2018-11-25T14:11:03.924Z,8.31
2018-11-25T14:13:33.202Z,8.30
2018-11-25T14:16:02.582Z,8.32
2018-11-25T14:18:32.010Z,8.23
2018-11-25T14:21:01.460Z,8.02
2018-11-25T14:23:30.749Z,8.09
2018-11-25T14:26:06.244Z,8.04
2018-11-25T14:28:35.561Z,8.21
2018-11-25T14:31:04.947Z,8.15
2018-11-25T14:33:34.849Z,8.16
2018-11-25T14:36:04.449Z,8.27
2018-11-25T14:38:33.782Z,8.52
2018-11-25T14:41:03.144Z,8.51
2018-11-25T14:43:32.448Z,8.42
2018-11-25T14:46:01.792Z,8.23
2018-11-25T14:48:31.061Z,8.34
2018-11-25T14:51:00.520Z,8.45
2018-11-25T14:53:29.858Z,8.35
2018-11-25T14:55:59.977Z,8.57
2018-11-25T14:58:29.333Z,8.65
2018-11-25T15:00:58.664Z,8.68
2018-11-25T15:03:27.975Z,8.61
2018-11-25T15:05:57.282Z,8.31
2018-11-25T15:08:28.113Z,8.30
2018-11-25T15:10:57.413Z,8.30
2018-11-25T15:13:26.791Z,8.37
2018-11-25T15:15:58.392Z,8.39
2018-11-25T15:18:27.691Z,8.60
2018-11-25T15:20:57.103Z,8.63
2018-11-25T15:23:26.497Z,8.55
2018-11-25T15:25:56.724Z,8.59
2018-11-25T15:28:26.007Z,8.53
2018-11-25T15:30:55.318Z,8.61
2018-11-25T15:33:24.792Z,8.66
2018-11-25T15:35:54.122Z,8.60
2018-11-25T15:38:24.150Z,8.70
2018-11-25T15:40:53.781Z,8.61
2018-11-25T15:43:23.116Z,8.70
2018-11-25T15:45:52.525Z,8.79
2018-11-25T15:48:26.942Z,8.78
2018-11-25T15:50:55.972Z,8.92
2018-11-25T15:53:25.279Z,8.90
2018-11-25T15:55:57.702Z,8.94
2018-11-25T15:58:27.009Z,8.92
2018-11-25T16:00:56.313Z,8.70
2018-11-25T16:03:28.466Z,8.65
2018-11-25T16:06:16.533Z,8.77
2018-11-25T16:08:45.871Z,8.76
2018-11-25T16:11:15.245Z,8.78
2018-11-25T16:13:44.559Z,8.78
2018-11-25T16:16:13.941Z,8.93
2018-11-25T16:18:43.223Z,8.80
2018-11-25T16:21:12.628Z,8.68
2018-11-25T16:23:42.041Z,8.64
2018-11-25T16:26:26.228Z,8.70
2018-11-25T16:28:59.321Z,8.93
2018-11-25T16:31:28.693Z,8.78
2018-11-25T16:33:58.107Z,8.70
2018-11-25T16:36:27.699Z,8.46
2018-11-25T16:38:57.537Z,8.62
2018-11-25T16:41:26.886Z,8.67
2018-11-25T16:43:56.224Z,8.56
2018-11-25T16:46:25.496Z,8.45
2018-11-25T16:48:54.782Z,8.44
2018-11-25T16:51:24.114Z,8.32
2018-11-25T16:53:53.669Z,8.31
2018-11-25T16:56:22.962Z,8.19
2018-11-25T16:58:52.684Z,8.53
2018-11-25T17:01:22.048Z,8.65
2018-11-25T17:03:51.410Z,8.64
2018-11-25T17:06:20.790Z,8.65
2018-11-25T17:08:50.137Z,8.55
2018-11-25T17:11:19.403Z,8.47
2018-11-25T17:13:48.729Z,8.68
2018-11-25T17:16:18.040Z,8.59
2018-11-25T17:18:47.423Z,8.40
2018-11-25T17:21:17.202Z,8.52
2018-11-25T17:23:46.583Z,8.40
2018-11-25T17:26:15.839Z,8.45
2018-11-25T17:28:45.209Z,8.34
2018-11-25T17:31:14.530Z,8.52
2018-11-25T17:33:43.874Z,8.40
2018-11-25T17:36:13.159Z,8.41
2018-11-25T17:38:42.533Z,8.17
2018-11-25T17:41:11.833Z,7.90
2018-11-25T17:43:41.238Z,7.93
2018-11-25T17:46:10.644Z,8.11
2018-11-25T17:48:39.950Z,8.10
2018-11-25T17:51:09.298Z,8.01
2018-11-25T17:53:38.544Z,7.94
2018-11-25T17:56:07.967Z,7.82
2018-11-25T17:58:37.249Z,7.87
2018-11-25T18:01:08.231Z,7.71
2018-11-25T18:03:38.687Z,7.75
2018-11-25T18:06:08.122Z,7.67
2018-11-25T18:08:37.450Z,7.81
2018-11-25T18:11:06.807Z,7.69
2018-11-25T18:13:39.665Z,7.73
2018-11-25T18:16:11.444Z,7.77
2018-11-25T18:18:52.483Z,7.72
2018-11-25T18:21:25.128Z,7.79
2018-11-25T18:23:54.906Z,7.84
2018-11-25T18:26:24.267Z,7.78
2018-11-25T18:28:53.591Z,7.70
2018-11-25T18:31:22.964Z,7.75
2018-11-25T18:33:52.307Z,7.56
2018-11-25T18:36:21.818Z,7.74
2018-11-25T18:38:51.147Z,7.91
2018-11-25T18:41:21.873Z,7.78
2018-11-25T18:43:50.194Z,7.62
2018-11-25T18:46:19.667Z,7.69
2018-11-25T18:48:50.765Z,7.75
2018-11-25T18:51:20.132Z,7.69
2018-11-25T18:53:49.481Z,7.62
2018-11-25T18:56:18.883Z,7.78
2018-11-25T18:58:48.161Z,7.73
2018-11-25T19:02:05.804Z,7.69
2018-11-25T19:04:35.092Z,7.59
2018-11-25T19:07:04.409Z,7.51
2018-11-25T19:09:33.732Z,7.66
2018-11-25T19:12:03.024Z,7.52
2018-11-25T19:14:32.329Z,7.68
2018-11-25T19:17:01.661Z,7.73
2018-11-25T19:19:30.925Z,7.71
2018-11-25T19:22:00.302Z,7.71
2018-11-25T19:24:29.805Z,7.88
2018-11-25T19:26:59.273Z,7.89
2018-11-25T19:29:28.559Z,7.88
2018-11-25T19:31:58.399Z,7.89
2018-11-25T19:34:27.664Z,7.72
2018-11-25T19:36:56.920Z,7.51
2018-11-25T19:39:26.285Z,7.59
2018-11-25T19:41:55.553Z,7.42
2018-11-25T19:44:24.865Z,7.54
2018-11-25T19:46:54.521Z,7.57
2018-11-25T19:49:23.825Z,7.56
2018-11-25T19:51:53.241Z,7.56
2018-11-25T19:54:22.710Z,7.62
2018-11-25T19:56:52.029Z,7.66
2018-11-25T19:59:21.334Z,7.59
2018-11-25T20:01:50.688Z,7.71
2018-11-25T20:04:20.185Z,7.71
2018-11-25T20:06:49.618Z,7.80
2018-11-25T20:09:19.017Z,7.63
2018-11-25T20:11:48.333Z,7.77
2018-11-25T20:14:17.655Z,7.81
2018-11-25T20:16:52.239Z,7.80
2018-11-25T20:19:21.614Z,7.77
2018-11-25T20:21:56.159Z,7.76
2018-11-25T20:24:25.449Z,7.73
2018-11-25T20:26:59.995Z,7.62
2018-11-25T20:29:29.275Z,7.45
2018-11-25T20:32:03.857Z,7.52
2018-11-25T20:34:33.145Z,7.47
2018-11-25T20:37:02.526Z,7.36
2018-11-25T20:39:34.751Z,7.59
2018-11-25T20:42:04.080Z,7.39
2018-11-25T20:44:33.333Z,7.48
2018-11-25T20:47:06.558Z,7.60
2018-11-25T20:49:36.280Z,7.55
2018-11-25T20:54:15.630Z,7.76
2018-11-25T20:56:45.114Z,7.21
2018-11-25T20:59:14.453Z,7.36
2018-11-25T21:01:43.784Z,7.55
2018-11-25T21:04:13.101Z,7.37
2018-11-25T21:06:42.421Z,7.24
2018-11-25T21:09:12.934Z,7.49
2018-11-25T21:11:42.211Z,7.47
2018-11-25T21:14:11.544Z,7.29
2018-11-25T21:16:40.879Z,7.28
2018-11-25T21:19:10.201Z,7.16
2018-11-25T21:21:39.559Z,7.18
2018-11-25T21:24:08.929Z,7.09
2018-11-25T21:26:38.333Z,7.12
2018-11-25T21:29:07.692Z,7.44
2018-11-25T21:31:37.623Z,7.26
2018-11-25T21:34:06.970Z,7.21
2018-11-25T21:36:36.373Z,7.07
2018-11-25T21:39:10.786Z,6.88
2018-11-25T21:41:40.159Z,6.94
2018-11-25T21:44:09.475Z,6.97
2018-11-25T21:46:39.260Z,7.00
2018-11-25T21:49:08.548Z,7.11
2018-11-25T21:51:37.905Z,7.24
2018-11-25T21:54:07.210Z,7.28
2018-11-25T21:56:36.622Z,6.83
2018-11-25T21:59:06.441Z,7.02
2018-11-25T22:01:35.899Z,6.93
2018-11-25T22:04:05.326Z,7.12
2018-11-25T22:06:34.726Z,7.41
2018-11-25T22:09:04.718Z,7.43
2018-11-25T22:11:33.996Z,7.06
2018-11-25T22:14:03.283Z,7.18
2018-11-25T22:16:32.662Z,7.18
2018-11-25T22:19:01.948Z,6.83
2018-11-25T22:21:31.359Z,6.72
2018-11-25T22:24:00.650Z,6.70
2018-11-25T22:26:29.986Z,6.89
2018-11-25T22:28:59.256Z,7.10
2018-11-25T22:31:28.790Z,7.20
2018-11-25T22:33:58.056Z,7.28
2018-11-25T22:36:27.308Z,7.17
2018-11-25T22:38:56.589Z,6.99
2018-11-25T22:41:25.884Z,7.26
2018-11-25T22:43:55.253Z,6.98
2018-11-25T22:46:24.542Z,6.73
2018-11-25T22:48:53.935Z,6.99
2018-11-25T22:51:23.255Z,6.99
2018-11-25T22:53:52.746Z,6.87
2018-11-25T22:56:22.043Z,6.91
2018-11-25T22:58:51.319Z,7.03
2018-11-25T23:01:20.734Z,7.17
2018-11-25T23:04:05.658Z,7.23
2018-11-25T23:06:52.071Z,7.33
2018-11-25T23:09:21.334Z,7.14
2018-11-25T23:11:50.592Z,7.08
2018-11-25T23:14:20.536Z,7.13
2018-11-25T23:16:49.821Z,7.27
2018-11-25T23:19:19.112Z,7.44
2018-11-25T23:21:48.423Z,7.10
2018-11-25T23:24:17.711Z,6.96
2018-11-25T23:26:47.000Z,7.00
2018-11-25T23:29:16.339Z,7.29
2018-11-25T23:31:45.657Z,7.17
2018-11-25T23:34:14.973Z,7.27
2018-11-25T23:36:44.645Z,7.43
2018-11-25T23:39:13.997Z,7.43
2018-11-25T23:41:43.289Z,7.44
2018-11-25T23:44:12.547Z,7.29
2018-11-25T23:46:41.792Z,7.47
2018-11-25T23:49:11.790Z,7.05
2018-11-25T23:51:41.367Z,7.27
2018-11-25T23:54:10.672Z,7.55
2018-11-25T23:56:40.130Z,7.59
2018-11-25T23:59:09.476Z,7.59
